Dades de l'estació automàtica Dosrius - PN Montnegre Corredor
Resum diari
20:00 TU| Temperatura mitjana | 22.5 °C | |
|---|---|---|
| Temperatura màxima | 26.9 °C | 10:46 TU |
| Temperatura mínima | 18.7 °C | 5:08 TU |
| Humitat relativa mitjana | 76% | |
| Precipitació acumulada | 0.0 mm | |
| Ratxa màxima del vent (2 m) | 28.4 km/h - 127º | 10:51 TU |
| Irradiació solar global | 19.4 MJ/m2 | |
El tram horari està expressat en Temps Universal (TU). Cal sumar una hora en horari d'hivern i dues en horari d'estiu per passar a l'hora oficial.
Dosrius - PN Montnegre Corredor
| Municipi | Dosrius |
|---|---|
| Comarca | Maresme |
| Altitud | 462 m |
| Data alta | 09.08.1996 |
| Estat actual | Operativa |
| Període TU |
TM °C |
TX °C |
TN °C |
HRM % |
PPT mm |
VVM (2 m) km/h |
DVM (2 m) graus |
VVX (2 m) km/h |
RS W/m2 |
|---|---|---|---|---|---|---|---|---|---|
| 00:00 - 00:30 | 18.9 | 19.0 | 18.9 | 94 | 0.0 | 0.7 | 92 | 2.2 | 0 |
| 00:30 - 01:00 | 19.0 | 19.4 | 18.8 | 94 | 0.0 | 0.7 | 86 | 2.5 | 0 |
| 01:00 - 01:30 | 19.1 | 19.3 | 19.0 | 94 | 0.0 | 0.7 | 85 | 3.2 | 0 |
| 01:30 - 02:00 | 19.1 | 19.2 | 19.0 | 94 | 0.0 | 0.7 | 94 | 2.9 | 0 |
| 02:00 - 02:30 | 19.6 | 19.8 | 19.3 | 96 | 0.0 | 1.1 | 61 | 3.2 | 0 |
| 02:30 - 03:00 | 19.7 | 19.8 | 19.6 | 96 | 0.0 | 0.7 | 57 | 3.2 | 0 |
| 03:00 - 03:30 | 19.6 | 19.8 | 19.5 | 96 | 0.0 | 0.4 | 66 | 2.5 | 0 |
| 03:30 - 04:00 | 19.2 | 19.4 | 19.1 | 96 | 0.0 | 0.4 | 74 | 2.2 | 0 |
| 04:00 - 04:30 | 19.0 | 19.1 | 18.7 | 96 | 0.0 | 0.7 | 84 | 3.2 | 0 |
| 04:30 - 05:00 | 18.9 | 19.1 | 18.7 | 95 | 0.0 | 0.4 | 68 | 3.2 | 0 |
| 05:00 - 05:30 | 18.8 | 19.0 | 18.7 | 95 | 0.0 | 0.4 | 65 | 2.5 | 3 |
| 05:30 - 06:00 | 19.0 | 19.2 | 18.9 | 93 | 0.0 | 0.4 | 64 | 2.2 | 19 |
| 06:00 - 06:30 | 19.7 | 21.1 | 19.2 | 88 | 0.0 | 0.7 | 74 | 2.5 | 96 |
| 06:30 - 07:00 | 21.9 | 22.7 | 21.2 | 77 | 0.0 | 0.7 | 140 | 5.0 | 213 |
| 07:00 - 07:30 | 22.7 | 23.3 | 22.3 | 70 | 0.0 | 2.2 | 302 | 7.9 | 310 |
| 07:30 - 08:00 | 23.5 | 24.0 | 23.1 | 63 | 0.0 | 3.6 | 243 | 11.2 | 390 |
| 08:00 - 08:30 | 24.3 | 24.8 | 23.9 | 58 | 0.0 | 4.0 | 232 | 11.2 | 498 |
| 08:30 - 09:00 | 25.3 | 26.3 | 24.7 | 56 | 0.0 | 3.2 | 242 | 12.6 | 579 |
| 09:00 - 09:30 | 25.6 | 26.1 | 25.0 | 58 | 0.0 | 6.8 | 209 | 18.4 | 663 |
| 09:30 - 10:00 | 25.3 | 26.2 | 24.7 | 65 | 0.0 | 8.3 | 175 | 19.8 | 713 |
| 10:00 - 10:30 | 25.5 | 26.5 | 25.0 | 61 | 0.0 | 8.3 | 190 | 18.7 | 781 |
| 10:30 - 11:00 | 26.1 | 26.9 | 25.4 | 57 | 0.0 | 8.6 | 175 | 28.4 | 809 |
| 11:00 - 11:30 | 26.1 | 26.7 | 25.8 | 56 | 0.0 | 10.1 | 201 | 25.6 | 843 |
| 11:30 - 12:00 | 25.8 | 26.8 | 25.1 | 60 | 0.0 | 7.9 | 179 | 20.2 | 801 |
| 12:00 - 12:30 | 25.9 | 26.7 | 24.8 | 61 | 0.0 | 8.6 | 181 | 20.5 | 677 |
| 12:30 - 13:00 | 26.0 | 26.6 | 25.6 | 62 | 0.0 | 9.7 | 197 | 23.4 | 757 |
| 13:00 - 13:30 | 25.3 | 26.1 | 24.6 | 67 | 0.0 | 8.6 | 200 | 20.5 | 558 |
| 13:30 - 14:00 | 25.6 | 26.4 | 25.0 | 66 | 0.0 | 7.9 | 186 | 20.2 | 492 |
| 14:00 - 14:30 | 24.2 | 25.0 | 23.9 | 71 | 0.0 | 7.9 | 193 | 17.6 | 219 |
| 14:30 - 15:00 | 24.3 | 25.0 | 23.7 | 71 | 0.0 | 10.1 | 209 | 25.6 | 344 |
| 15:00 - 15:30 | 23.6 | 24.0 | 23.4 | 74 | 0.0 | 9.7 | 216 | 24.5 | 217 |
| 15:30 - 16:00 | 24.0 | 24.7 | 23.4 | 72 | 0.0 | 8.6 | 212 | 18.7 | 332 |
| 16:00 - 16:30 | 24.4 | 24.9 | 23.9 | 69 | 0.0 | 7.9 | 211 | 19.4 | 278 |
| 16:30 - 17:00 | 23.5 | 23.9 | 23.3 | 73 | 0.0 | 5.8 | 217 | 13.0 | 104 |
| 17:00 - 17:30 | 23.2 | 23.4 | 23.0 | 75 | 0.0 | 5.0 | 225 | 13.7 | 53 |
| 17:30 - 18:00 | 22.9 | 23.0 | 22.7 | 76 | 0.0 | 2.9 | 236 | 9.4 | 43 |
| 18:00 - 18:30 | 22.6 | 22.7 | 22.4 | 77 | 0.0 | 2.9 | 231 | 7.6 | 8 |
| 18:30 - 19:00 | 22.2 | 22.5 | 21.9 | 76 | 0.0 | 1.8 | 215 | 6.8 | 0 |
| 19:00 - 19:30 | 21.9 | 22.2 | 21.5 | 77 | 0.0 | 1.4 | 187 | 5.8 | 0 |
| 19:30 - 20:00 | 21.5 | 21.8 | 21.0 | 79 | 0.0 | 0.7 | 153 | 4.3 | 0 |
| 20:00 - 20:30 | 20.7 | 21.0 | 20.5 | 81 | 0.0 | 1.4 | 87 | 4.0 | 0 |
Les dades en taronja només han passat un control de qualitat automàtic. Resta pendent la seva validació definitiva.